sensor_id;sensor_type;location;lat;lon;timestamp;P1;durP1;ratioP1;P2;durP2;ratioP2
11524;SDS011;5819;49.648;8.330;2023-05-07T00:00:58;3.58;;;2.80;;
11524;SDS011;5819;49.648;8.330;2023-05-07T00:03:26;4.57;;;2.53;;
11524;SDS011;5819;49.648;8.330;2023-05-07T00:05:55;5.78;;;3.20;;
11524;SDS011;5819;49.648;8.330;2023-05-07T00:08:22;4.70;;;2.67;;
11524;SDS011;5819;49.648;8.330;2023-05-07T00:10:50;4.60;;;2.50;;
11524;SDS011;5819;49.648;8.330;2023-05-07T00:13:18;4.38;;;2.55;;
11524;SDS011;5819;49.648;8.330;2023-05-07T00:15:48;5.07;;;2.83;;
11524;SDS011;5819;49.648;8.330;2023-05-07T00:18:15;5.07;;;2.88;;
11524;SDS011;5819;49.648;8.330;2023-05-07T00:20:47;2.60;;;2.40;;
11524;SDS011;5819;49.648;8.330;2023-05-07T00:23:14;2.85;;;2.55;;
11524;SDS011;5819;49.648;8.330;2023-05-07T00:25:42;3.50;;;2.80;;
11524;SDS011;5819;49.648;8.330;2023-05-07T00:28:10;2.78;;;2.40;;
11524;SDS011;5819;49.648;8.330;2023-05-07T00:30:38;4.57;;;3.08;;
11524;SDS011;5819;49.648;8.330;2023-05-07T00:33:07;3.90;;;2.70;;
11524;SDS011;5819;49.648;8.330;2023-05-07T00:35:35;3.28;;;2.45;;
11524;SDS011;5819;49.648;8.330;2023-05-07T00:38:03;2.80;;;2.60;;
11524;SDS011;5819;49.648;8.330;2023-05-07T00:40:31;3.55;;;2.45;;
11524;SDS011;5819;49.648;8.330;2023-05-07T00:42:59;2.63;;;2.42;;
11524;SDS011;5819;49.648;8.330;2023-05-07T00:45:27;2.95;;;2.70;;
11524;SDS011;5819;49.648;8.330;2023-05-07T00:47:57;3.67;;;2.78;;
11524;SDS011;5819;49.648;8.330;2023-05-07T00:50:29;4.35;;;2.78;;
11524;SDS011;5819;49.648;8.330;2023-05-07T00:52:58;4.72;;;2.42;;
11524;SDS011;5819;49.648;8.330;2023-05-07T00:55:27;3.95;;;2.65;;
11524;SDS011;5819;49.648;8.330;2023-05-07T00:57:56;6.07;;;2.90;;
11524;SDS011;5819;49.648;8.330;2023-05-07T01:00:25;3.80;;;2.63;;
11524;SDS011;5819;49.648;8.330;2023-05-07T01:02:53;4.18;;;2.60;;
11524;SDS011;5819;49.648;8.330;2023-05-07T01:05:25;4.32;;;2.63;;
11524;SDS011;5819;49.648;8.330;2023-05-07T01:08:00;5.07;;;2.72;;
11524;SDS011;5819;49.648;8.330;2023-05-07T01:10:32;4.05;;;2.80;;
11524;SDS011;5819;49.648;8.330;2023-05-07T01:13:01;4.78;;;2.97;;
11524;SDS011;5819;49.648;8.330;2023-05-07T01:15:29;2.58;;;2.38;;
11524;SDS011;5819;49.648;8.330;2023-05-07T01:17:57;3.60;;;2.30;;
11524;SDS011;5819;49.648;8.330;2023-05-07T01:20:32;5.60;;;3.00;;
11524;SDS011;5819;49.648;8.330;2023-05-07T01:23:03;2.53;;;2.33;;
11524;SDS011;5819;49.648;8.330;2023-05-07T01:25:31;2.70;;;2.33;;
11524;SDS011;5819;49.648;8.330;2023-05-07T01:28:01;3.67;;;2.83;;
11524;SDS011;5819;49.648;8.330;2023-05-07T01:30:32;3.17;;;2.88;;
11524;SDS011;5819;49.648;8.330;2023-05-07T01:33:08;2.88;;;2.25;;
11524;SDS011;5819;49.648;8.330;2023-05-07T01:35:41;3.50;;;2.83;;
11524;SDS011;5819;49.648;8.330;2023-05-07T01:38:17;3.85;;;2.85;;
11524;SDS011;5819;49.648;8.330;2023-05-07T01:40:46;6.85;;;3.10;;
11524;SDS011;5819;49.648;8.330;2023-05-07T01:43:14;3.60;;;2.65;;
11524;SDS011;5819;49.648;8.330;2023-05-07T01:45:42;3.88;;;2.70;;
11524;SDS011;5819;49.648;8.330;2023-05-07T01:48:12;4.57;;;3.03;;
11524;SDS011;5819;49.648;8.330;2023-05-07T01:50:41;3.65;;;2.80;;
11524;SDS011;5819;49.648;8.330;2023-05-07T01:53:10;4.63;;;2.55;;
11524;SDS011;5819;49.648;8.330;2023-05-07T01:55:40;4.55;;;2.83;;
11524;SDS011;5819;49.648;8.330;2023-05-07T01:58:08;3.10;;;2.60;;
11524;SDS011;5819;49.648;8.330;2023-05-07T02:00:37;4.35;;;3.10;;
11524;SDS011;5819;49.648;8.330;2023-05-07T02:03:05;4.70;;;3.15;;
11524;SDS011;5819;49.648;8.330;2023-05-07T02:05:42;3.40;;;2.70;;
11524;SDS011;5819;49.648;8.330;2023-05-07T02:08:18;6.97;;;2.90;;
11524;SDS011;5819;49.648;8.330;2023-05-07T02:10:47;5.00;;;3.00;;
11524;SDS011;5819;49.648;8.330;2023-05-07T02:13:16;4.07;;;2.90;;
11524;SDS011;5819;49.648;8.330;2023-05-07T02:15:44;3.30;;;3.00;;
11524;SDS011;5819;49.648;8.330;2023-05-07T02:18:16;3.40;;;3.00;;
11524;SDS011;5819;49.648;8.330;2023-05-07T02:20:44;4.22;;;2.97;;
11524;SDS011;5819;49.648;8.330;2023-05-07T02:23:12;6.60;;;3.20;;
11524;SDS011;5819;49.648;8.330;2023-05-07T02:25:40;3.25;;;2.85;;
11524;SDS011;5819;49.648;8.330;2023-05-07T02:28:10;4.53;;;3.75;;
11524;SDS011;5819;49.648;8.330;2023-05-07T02:30:55;3.28;;;2.90;;
11524;SDS011;5819;49.648;8.330;2023-05-07T02:33:24;3.58;;;3.20;;
11524;SDS011;5819;49.648;8.330;2023-05-07T02:35:52;5.80;;;3.22;;
11524;SDS011;5819;49.648;8.330;2023-05-07T02:38:21;3.50;;;3.20;;
11524;SDS011;5819;49.648;8.330;2023-05-07T02:40:49;3.67;;;3.38;;
11524;SDS011;5819;49.648;8.330;2023-05-07T02:43:18;3.95;;;3.60;;
11524;SDS011;5819;49.648;8.330;2023-05-07T02:45:48;5.47;;;3.50;;
11524;SDS011;5819;49.648;8.330;2023-05-07T02:48:16;5.93;;;3.42;;
11524;SDS011;5819;49.648;8.330;2023-05-07T02:50:44;4.07;;;3.67;;
11524;SDS011;5819;49.648;8.330;2023-05-07T02:53:13;3.95;;;3.13;;
11524;SDS011;5819;49.648;8.330;2023-05-07T02:55:41;4.45;;;3.30;;
11524;SDS011;5819;49.648;8.330;2023-05-07T02:58:09;5.90;;;3.53;;
11524;SDS011;5819;49.648;8.330;2023-05-07T03:00:40;5.47;;;3.42;;
11524;SDS011;5819;49.648;8.330;2023-05-07T03:03:19;5.18;;;3.38;;
11524;SDS011;5819;49.648;8.330;2023-05-07T03:05:48;3.78;;;3.47;;
11524;SDS011;5819;49.648;8.330;2023-05-07T03:08:16;4.35;;;3.42;;
11524;SDS011;5819;49.648;8.330;2023-05-07T03:10:44;5.28;;;3.95;;
11524;SDS011;5819;49.648;8.330;2023-05-07T03:13:12;5.53;;;3.72;;
11524;SDS011;5819;49.648;8.330;2023-05-07T03:15:41;6.28;;;3.63;;
11524;SDS011;5819;49.648;8.330;2023-05-07T03:18:10;4.57;;;3.45;;
11524;SDS011;5819;49.648;8.330;2023-05-07T03:20:38;6.05;;;3.70;;
11524;SDS011;5819;49.648;8.330;2023-05-07T03:23:06;3.65;;;3.30;;
11524;SDS011;5819;49.648;8.330;2023-05-07T03:25:35;6.85;;;3.85;;
11524;SDS011;5819;49.648;8.330;2023-05-07T03:28:03;6.75;;;3.30;;
11524;SDS011;5819;49.648;8.330;2023-05-07T03:30:45;4.32;;;3.40;;
11524;SDS011;5819;49.648;8.330;2023-05-07T03:33:13;4.00;;;3.60;;
11524;SDS011;5819;49.648;8.330;2023-05-07T03:35:42;5.00;;;3.40;;
11524;SDS011;5819;49.648;8.330;2023-05-07T03:38:13;5.05;;;3.70;;
11524;SDS011;5819;49.648;8.330;2023-05-07T03:40:41;6.00;;;3.70;;
11524;SDS011;5819;49.648;8.330;2023-05-07T03:43:09;5.47;;;4.15;;
11524;SDS011;5819;49.648;8.330;2023-05-07T03:45:45;5.72;;;3.90;;
11524;SDS011;5819;49.648;8.330;2023-05-07T03:48:20;5.82;;;3.60;;
11524;SDS011;5819;49.648;8.330;2023-05-07T03:50:50;6.00;;;3.42;;
11524;SDS011;5819;49.648;8.330;2023-05-07T03:53:19;4.60;;;3.63;;
11524;SDS011;5819;49.648;8.330;2023-05-07T03:55:47;6.47;;;3.70;;
11524;SDS011;5819;49.648;8.330;2023-05-07T03:58:16;4.40;;;3.80;;
11524;SDS011;5819;49.648;8.330;2023-05-07T04:00:45;5.85;;;3.35;;
11524;SDS011;5819;49.648;8.330;2023-05-07T04:03:26;5.88;;;4.03;;
11524;SDS011;5819;49.648;8.330;2023-05-07T04:05:57;4.65;;;3.70;;
11524;SDS011;5819;49.648;8.330;2023-05-07T04:08:25;5.22;;;4.15;;
11524;SDS011;5819;49.648;8.330;2023-05-07T04:10:54;6.32;;;3.67;;
11524;SDS011;5819;49.648;8.330;2023-05-07T04:13:25;4.72;;;3.47;;
11524;SDS011;5819;49.648;8.330;2023-05-07T04:15:54;4.03;;;3.30;;
11524;SDS011;5819;49.648;8.330;2023-05-07T04:18:25;6.07;;;3.70;;
11524;SDS011;5819;49.648;8.330;2023-05-07T04:20:53;4.80;;;3.33;;
11524;SDS011;5819;49.648;8.330;2023-05-07T04:23:21;4.43;;;3.92;;
11524;SDS011;5819;49.648;8.330;2023-05-07T04:25:49;4.47;;;3.55;;
11524;SDS011;5819;49.648;8.330;2023-05-07T04:28:26;4.45;;;3.60;;
11524;SDS011;5819;49.648;8.330;2023-05-07T04:30:55;3.78;;;2.90;;
11524;SDS011;5819;49.648;8.330;2023-05-07T04:33:23;4.78;;;3.45;;
11524;SDS011;5819;49.648;8.330;2023-05-07T04:35:51;5.28;;;3.97;;
11524;SDS011;5819;49.648;8.330;2023-05-07T04:38:19;4.53;;;3.67;;
11524;SDS011;5819;49.648;8.330;2023-05-07T04:40:50;4.75;;;3.75;;
11524;SDS011;5819;49.648;8.330;2023-05-07T04:43:21;4.05;;;3.65;;
11524;SDS011;5819;49.648;8.330;2023-05-07T04:45:50;5.00;;;4.10;;
11524;SDS011;5819;49.648;8.330;2023-05-07T04:48:23;5.75;;;4.00;;
11524;SDS011;5819;49.648;8.330;2023-05-07T04:50:52;4.68;;;3.90;;
11524;SDS011;5819;49.648;8.330;2023-05-07T04:53:20;4.35;;;3.47;;
11524;SDS011;5819;49.648;8.330;2023-05-07T04:55:54;3.88;;;3.50;;
11524;SDS011;5819;49.648;8.330;2023-05-07T04:58:24;5.80;;;3.90;;
11524;SDS011;5819;49.648;8.330;2023-05-07T05:00:52;4.45;;;3.60;;
11524;SDS011;5819;49.648;8.330;2023-05-07T05:03:20;4.28;;;3.60;;
11524;SDS011;5819;49.648;8.330;2023-05-07T05:05:50;6.65;;;3.50;;
11524;SDS011;5819;49.648;8.330;2023-05-07T05:08:20;3.83;;;3.45;;
11524;SDS011;5819;49.648;8.330;2023-05-07T05:10:50;6.20;;;3.55;;
11524;SDS011;5819;49.648;8.330;2023-05-07T05:13:17;5.88;;;3.72;;
11524;SDS011;5819;49.648;8.330;2023-05-07T05:15:46;4.03;;;3.63;;
11524;SDS011;5819;49.648;8.330;2023-05-07T05:18:14;6.38;;;3.65;;
11524;SDS011;5819;49.648;8.330;2023-05-07T05:20:42;4.72;;;3.92;;
11524;SDS011;5819;49.648;8.330;2023-05-07T05:23:13;4.45;;;3.45;;
11524;SDS011;5819;49.648;8.330;2023-05-07T05:25:41;4.20;;;3.72;;
11524;SDS011;5819;49.648;8.330;2023-05-07T05:28:11;3.65;;;3.33;;
11524;SDS011;5819;49.648;8.330;2023-05-07T05:30:38;3.72;;;3.38;;
11524;SDS011;5819;49.648;8.330;2023-05-07T05:33:07;5.45;;;3.70;;
11524;SDS011;5819;49.648;8.330;2023-05-07T05:35:35;6.13;;;3.47;;
11524;SDS011;5819;49.648;8.330;2023-05-07T05:38:09;4.35;;;3.47;;
11524;SDS011;5819;49.648;8.330;2023-05-07T05:40:39;4.30;;;3.40;;
11524;SDS011;5819;49.648;8.330;2023-05-07T05:43:07;4.13;;;3.25;;
11524;SDS011;5819;49.648;8.330;2023-05-07T05:45:36;4.10;;;3.70;;
11524;SDS011;5819;49.648;8.330;2023-05-07T05:48:05;4.22;;;3.63;;
11524;SDS011;5819;49.648;8.330;2023-05-07T05:50:35;3.85;;;3.25;;
11524;SDS011;5819;49.648;8.330;2023-05-07T05:53:03;3.85;;;3.30;;
11524;SDS011;5819;49.648;8.330;2023-05-07T05:55:32;4.95;;;3.60;;
11524;SDS011;5819;49.648;8.330;2023-05-07T05:58:05;4.50;;;3.42;;
11524;SDS011;5819;49.648;8.330;2023-05-07T06:00:37;3.55;;;3.25;;
11524;SDS011;5819;49.648;8.330;2023-05-07T06:03:06;4.38;;;3.90;;
11524;SDS011;5819;49.648;8.330;2023-05-07T06:05:34;6.03;;;3.45;;
11524;SDS011;5819;49.648;8.330;2023-05-07T06:08:04;4.95;;;3.30;;
11524;SDS011;5819;49.648;8.330;2023-05-07T06:10:33;3.60;;;3.20;;
11524;SDS011;5819;49.648;8.330;2023-05-07T06:13:07;3.58;;;3.28;;
11524;SDS011;5819;49.648;8.330;2023-05-07T06:15:36;7.47;;;3.58;;
11524;SDS011;5819;49.648;8.330;2023-05-07T06:18:08;4.05;;;3.30;;
11524;SDS011;5819;49.648;8.330;2023-05-07T06:20:36;3.40;;;3.08;;
11524;SDS011;5819;49.648;8.330;2023-05-07T06:23:09;5.22;;;3.35;;
11524;SDS011;5819;49.648;8.330;2023-05-07T06:25:38;4.07;;;3.00;;
11524;SDS011;5819;49.648;8.330;2023-05-07T06:28:08;3.22;;;2.92;;
11524;SDS011;5819;49.648;8.330;2023-05-07T06:30:40;3.72;;;3.28;;
11524;SDS011;5819;49.648;8.330;2023-05-07T06:33:08;3.50;;;3.20;;
11524;SDS011;5819;49.648;8.330;2023-05-07T06:35:37;3.45;;;3.03;;
11524;SDS011;5819;49.648;8.330;2023-05-07T06:38:05;3.08;;;2.83;;
11524;SDS011;5819;49.648;8.330;2023-05-07T06:40:33;4.93;;;3.20;;
11524;SDS011;5819;49.648;8.330;2023-05-07T06:43:02;3.97;;;3.10;;
11524;SDS011;5819;49.648;8.330;2023-05-07T06:45:46;5.03;;;3.28;;
11524;SDS011;5819;49.648;8.330;2023-05-07T06:48:15;4.57;;;3.65;;
11524;SDS011;5819;49.648;8.330;2023-05-07T06:50:58;3.70;;;3.28;;
11524;SDS011;5819;49.648;8.330;2023-05-07T06:53:29;3.78;;;3.05;;
11524;SDS011;5819;49.648;8.330;2023-05-07T06:55:59;3.28;;;2.75;;
11524;SDS011;5819;49.648;8.330;2023-05-07T06:58:27;3.60;;;3.30;;
11524;SDS011;5819;49.648;8.330;2023-05-07T07:00:57;4.40;;;2.88;;
11524;SDS011;5819;49.648;8.330;2023-05-07T07:03:25;4.00;;;3.38;;
11524;SDS011;5819;49.648;8.330;2023-05-07T07:05:54;5.38;;;3.47;;
11524;SDS011;5819;49.648;8.330;2023-05-07T07:08:23;3.28;;;2.97;;
11524;SDS011;5819;49.648;8.330;2023-05-07T07:10:51;4.68;;;3.33;;
11524;SDS011;5819;49.648;8.330;2023-05-07T07:13:19;5.35;;;3.15;;
11524;SDS011;5819;49.648;8.330;2023-05-07T07:15:47;7.47;;;4.50;;
11524;SDS011;5819;49.648;8.330;2023-05-07T07:18:18;5.13;;;3.42;;
11524;SDS011;5819;49.648;8.330;2023-05-07T07:20:47;3.50;;;3.00;;
11524;SDS011;5819;49.648;8.330;2023-05-07T07:23:15;3.20;;;2.92;;
11524;SDS011;5819;49.648;8.330;2023-05-07T07:25:43;4.03;;;3.30;;
11524;SDS011;5819;49.648;8.330;2023-05-07T07:28:11;3.58;;;3.28;;
11524;SDS011;5819;49.648;8.330;2023-05-07T07:30:39;4.28;;;3.78;;
11524;SDS011;5819;49.648;8.330;2023-05-07T07:33:08;5.20;;;3.08;;
11524;SDS011;5819;49.648;8.330;2023-05-07T07:35:38;3.55;;;2.85;;
11524;SDS011;5819;49.648;8.330;2023-05-07T07:38:06;5.60;;;3.00;;
11524;SDS011;5819;49.648;8.330;2023-05-07T07:40:34;3.40;;;3.10;;
11524;SDS011;5819;49.648;8.330;2023-05-07T07:43:04;3.13;;;2.83;;
11524;SDS011;5819;49.648;8.330;2023-05-07T07:45:32;4.50;;;3.03;;
11524;SDS011;5819;49.648;8.330;2023-05-07T07:48:01;6.53;;;2.80;;
11524;SDS011;5819;49.648;8.330;2023-05-07T07:50:33;3.38;;;3.05;;
11524;SDS011;5819;49.648;8.330;2023-05-07T07:53:14;3.13;;;2.85;;
11524;SDS011;5819;49.648;8.330;2023-05-07T07:55:42;4.28;;;2.90;;
11524;SDS011;5819;49.648;8.330;2023-05-07T07:58:15;5.28;;;3.30;;
11524;SDS011;5819;49.648;8.330;2023-05-07T08:00:42;3.22;;;2.67;;
11524;SDS011;5819;49.648;8.330;2023-05-07T08:03:12;4.88;;;3.20;;
11524;SDS011;5819;49.648;8.330;2023-05-07T08:05:44;3.45;;;3.13;;
11524;SDS011;5819;49.648;8.330;2023-05-07T08:08:11;4.05;;;2.83;;
11524;SDS011;5819;49.648;8.330;2023-05-07T08:10:42;4.05;;;2.80;;
11524;SDS011;5819;49.648;8.330;2023-05-07T08:13:18;4.07;;;3.30;;
11524;SDS011;5819;49.648;8.330;2023-05-07T08:15:47;7.20;;;3.05;;
11524;SDS011;5819;49.648;8.330;2023-05-07T08:18:15;5.93;;;3.47;;
11524;SDS011;5819;49.648;8.330;2023-05-07T08:20:44;9.57;;;3.97;;
11524;SDS011;5819;49.648;8.330;2023-05-07T08:23:17;4.03;;;3.03;;
11524;SDS011;5819;49.648;8.330;2023-05-07T08:25:47;4.10;;;3.25;;
11524;SDS011;5819;49.648;8.330;2023-05-07T08:28:16;8.25;;;3.33;;
11524;SDS011;5819;49.648;8.330;2023-05-07T08:30:46;5.88;;;3.53;;
11524;SDS011;5819;49.648;8.330;2023-05-07T08:33:14;4.30;;;2.90;;
11524;SDS011;5819;49.648;8.330;2023-05-07T08:35:42;3.88;;;2.85;;
11524;SDS011;5819;49.648;8.330;2023-05-07T08:38:13;4.53;;;3.40;;
11524;SDS011;5819;49.648;8.330;2023-05-07T08:40:41;6.43;;;3.85;;
11524;SDS011;5819;49.648;8.330;2023-05-07T08:43:17;6.65;;;3.72;;
11524;SDS011;5819;49.648;8.330;2023-05-07T08:45:47;4.32;;;3.35;;
11524;SDS011;5819;49.648;8.330;2023-05-07T08:48:18;5.28;;;3.90;;
11524;SDS011;5819;49.648;8.330;2023-05-07T08:50:57;7.25;;;3.17;;
11524;SDS011;5819;49.648;8.330;2023-05-07T08:53:26;3.13;;;2.83;;
11524;SDS011;5819;49.648;8.330;2023-05-07T08:55:54;2.83;;;2.60;;
11524;SDS011;5819;49.648;8.330;2023-05-07T08:58:24;4.90;;;2.80;;
11524;SDS011;5819;49.648;8.330;2023-05-07T09:00:52;3.25;;;2.95;;
11524;SDS011;5819;49.648;8.330;2023-05-07T09:03:22;5.35;;;3.17;;
11524;SDS011;5819;49.648;8.330;2023-05-07T09:05:52;3.20;;;2.70;;
11524;SDS011;5819;49.648;8.330;2023-05-07T09:08:24;4.03;;;2.80;;
11524;SDS011;5819;49.648;8.330;2023-05-07T09:10:56;3.40;;;2.88;;
11524;SDS011;5819;49.648;8.330;2023-05-07T09:13:26;3.25;;;2.80;;
11524;SDS011;5819;49.648;8.330;2023-05-07T09:15:56;4.03;;;3.05;;
11524;SDS011;5819;49.648;8.330;2023-05-07T09:18:25;4.88;;;3.40;;
11524;SDS011;5819;49.648;8.330;2023-05-07T09:20:54;4.05;;;3.53;;
11524;SDS011;5819;49.648;8.330;2023-05-07T09:23:23;4.93;;;3.70;;
11524;SDS011;5819;49.648;8.330;2023-05-07T09:25:52;3.15;;;2.75;;
11524;SDS011;5819;49.648;8.330;2023-05-07T09:28:33;9.35;;;3.85;;
11524;SDS011;5819;49.648;8.330;2023-05-07T09:31:01;4.25;;;3.25;;
11524;SDS011;5819;49.648;8.330;2023-05-07T09:33:29;4.00;;;3.55;;
11524;SDS011;5819;49.648;8.330;2023-05-07T09:36:02;3.97;;;3.00;;
11524;SDS011;5819;49.648;8.330;2023-05-07T09:38:32;2.83;;;2.58;;
11524;SDS011;5819;49.648;8.330;2023-05-07T09:41:04;5.60;;;2.92;;
11524;SDS011;5819;49.648;8.330;2023-05-07T09:43:39;4.85;;;3.38;;
11524;SDS011;5819;49.648;8.330;2023-05-07T09:46:11;4.95;;;2.97;;
11524;SDS011;5819;49.648;8.330;2023-05-07T09:48:46;3.67;;;2.75;;
11524;SDS011;5819;49.648;8.330;2023-05-07T09:51:18;6.47;;;2.60;;
11524;SDS011;5819;49.648;8.330;2023-05-07T09:53:53;4.72;;;2.85;;
11524;SDS011;5819;49.648;8.330;2023-05-07T09:56:24;5.25;;;3.00;;
11524;SDS011;5819;49.648;8.330;2023-05-07T09:58:55;3.33;;;2.50;;
11524;SDS011;5819;49.648;8.330;2023-05-07T10:01:25;4.80;;;2.33;;
11524;SDS011;5819;49.648;8.330;2023-05-07T10:03:54;4.15;;;2.67;;
11524;SDS011;5819;49.648;8.330;2023-05-07T10:06:23;5.32;;;2.97;;
11524;SDS011;5819;49.648;8.330;2023-05-07T10:08:52;3.35;;;3.00;;
11524;SDS011;5819;49.648;8.330;2023-05-07T10:11:21;2.53;;;2.20;;
11524;SDS011;5819;49.648;8.330;2023-05-07T10:13:50;2.30;;;2.10;;
11524;SDS011;5819;49.648;8.330;2023-05-07T10:16:21;2.08;;;1.98;;
11524;SDS011;5819;49.648;8.330;2023-05-07T10:18:50;3.25;;;2.40;;
11524;SDS011;5819;49.648;8.330;2023-05-07T10:21:22;2.45;;;2.25;;
11524;SDS011;5819;49.648;8.330;2023-05-07T10:23:57;2.58;;;2.00;;
11524;SDS011;5819;49.648;8.330;2023-05-07T10:26:30;2.90;;;2.60;;
11524;SDS011;5819;49.648;8.330;2023-05-07T10:29:02;3.55;;;2.33;;
11524;SDS011;5819;49.648;8.330;2023-05-07T10:31:42;2.83;;;2.60;;
11524;SDS011;5819;49.648;8.330;2023-05-07T10:34:26;4.28;;;2.35;;
11524;SDS011;5819;49.648;8.330;2023-05-07T10:36:57;5.60;;;3.03;;
11524;SDS011;5819;49.648;8.330;2023-05-07T10:39:26;3.60;;;2.83;;
11524;SDS011;5819;49.648;8.330;2023-05-07T10:41:54;3.35;;;2.70;;
11524;SDS011;5819;49.648;8.330;2023-05-07T10:44:26;2.50;;;2.30;;
11524;SDS011;5819;49.648;8.330;2023-05-07T10:47:07;2.95;;;2.65;;
11524;SDS011;5819;49.648;8.330;2023-05-07T10:52:39;2.80;;;2.58;;
11524;SDS011;5819;49.648;8.330;2023-05-07T10:55:19;4.18;;;2.60;;
11524;SDS011;5819;49.648;8.330;2023-05-07T10:58:24;5.25;;;2.60;;
11524;SDS011;5819;49.648;8.330;2023-05-07T11:01:07;3.55;;;2.47;;
11524;SDS011;5819;49.648;8.330;2023-05-07T11:09:56;2.33;;;2.00;;
11524;SDS011;5819;49.648;8.330;2023-05-07T11:12:50;2.55;;;2.35;;
11524;SDS011;5819;49.648;8.330;2023-05-07T11:15:33;6.13;;;2.40;;
11524;SDS011;5819;49.648;8.330;2023-05-07T11:18:08;3.60;;;2.53;;
11524;SDS011;5819;49.648;8.330;2023-05-07T11:20:50;4.85;;;2.40;;
11524;SDS011;5819;49.648;8.330;2023-05-07T11:26:42;2.15;;;1.95;;
11524;SDS011;5819;49.648;8.330;2023-05-07T11:29:13;2.50;;;2.30;;
11524;SDS011;5819;49.648;8.330;2023-05-07T11:31:50;2.88;;;2.08;;
11524;SDS011;5819;49.648;8.330;2023-05-07T11:34:21;2.90;;;2.05;;
11524;SDS011;5819;49.648;8.330;2023-05-07T11:36:52;4.00;;;1.95;;
11524;SDS011;5819;49.648;8.330;2023-05-07T11:39:31;2.60;;;2.40;;
11524;SDS011;5819;49.648;8.330;2023-05-07T11:42:02;4.10;;;2.03;;
11524;SDS011;5819;49.648;8.330;2023-05-07T11:44:42;3.28;;;2.10;;
11524;SDS011;5819;49.648;8.330;2023-05-07T11:47:16;3.55;;;2.28;;
11524;SDS011;5819;49.648;8.330;2023-05-07T11:49:46;2.72;;;1.77;;
11524;SDS011;5819;49.648;8.330;2023-05-07T11:52:16;2.83;;;2.05;;
11524;SDS011;5819;49.648;8.330;2023-05-07T11:54:48;4.07;;;2.25;;
11524;SDS011;5819;49.648;8.330;2023-05-07T11:57:16;2.00;;;1.80;;
11524;SDS011;5819;49.648;8.330;2023-05-07T11:59:44;2.30;;;2.10;;
11524;SDS011;5819;49.648;8.330;2023-05-07T12:02:13;3.60;;;2.20;;
11524;SDS011;5819;49.648;8.330;2023-05-07T12:04:41;2.78;;;1.85;;
11524;SDS011;5819;49.648;8.330;2023-05-07T12:07:11;5.88;;;5.28;;
11524;SDS011;5819;49.648;8.330;2023-05-07T12:09:40;2.78;;;2.28;;
11524;SDS011;5819;49.648;8.330;2023-05-07T12:12:08;2.30;;;2.10;;
11524;SDS011;5819;49.648;8.330;2023-05-07T12:14:39;2.10;;;2.00;;
11524;SDS011;5819;49.648;8.330;2023-05-07T12:17:07;2.97;;;2.30;;
11524;SDS011;5819;49.648;8.330;2023-05-07T12:19:37;3.50;;;2.10;;
11524;SDS011;5819;49.648;8.330;2023-05-07T12:22:06;2.95;;;2.03;;
11524;SDS011;5819;49.648;8.330;2023-05-07T12:24:47;2.70;;;2.10;;
11524;SDS011;5819;49.648;8.330;2023-05-07T12:27:16;4.68;;;2.20;;
11524;SDS011;5819;49.648;8.330;2023-05-07T12:29:45;2.63;;;1.92;;
11524;SDS011;5819;49.648;8.330;2023-05-07T12:32:14;2.20;;;2.00;;
11524;SDS011;5819;49.648;8.330;2023-05-07T12:34:43;2.72;;;1.92;;
11524;SDS011;5819;49.648;8.330;2023-05-07T12:37:11;2.40;;;2.13;;
11524;SDS011;5819;49.648;8.330;2023-05-07T12:39:43;2.78;;;2.10;;
11524;SDS011;5819;49.648;8.330;2023-05-07T12:42:14;4.22;;;2.10;;
11524;SDS011;5819;49.648;8.330;2023-05-07T12:44:45;2.58;;;2.33;;
11524;SDS011;5819;49.648;8.330;2023-05-07T12:47:14;4.63;;;2.20;;
11524;SDS011;5819;49.648;8.330;2023-05-07T12:49:42;3.03;;;2.20;;
11524;SDS011;5819;49.648;8.330;2023-05-07T12:52:12;3.00;;;2.05;;
11524;SDS011;5819;49.648;8.330;2023-05-07T12:54:40;2.72;;;2.10;;
11524;SDS011;5819;49.648;8.330;2023-05-07T12:57:09;2.40;;;2.13;;
11524;SDS011;5819;49.648;8.330;2023-05-07T12:59:38;2.50;;;2.30;;
11524;SDS011;5819;49.648;8.330;2023-05-07T13:02:07;2.63;;;2.25;;
11524;SDS011;5819;49.648;8.330;2023-05-07T13:04:38;2.47;;;2.28;;
11524;SDS011;5819;49.648;8.330;2023-05-07T13:07:06;2.65;;;2.45;;
11524;SDS011;5819;49.648;8.330;2023-05-07T13:09:35;2.22;;;2.03;;
11524;SDS011;5819;49.648;8.330;2023-05-07T13:12:03;2.42;;;2.22;;
11524;SDS011;5819;49.648;8.330;2023-05-07T13:14:34;2.58;;;2.38;;
11524;SDS011;5819;49.648;8.330;2023-05-07T13:17:02;3.00;;;2.53;;
11524;SDS011;5819;49.648;8.330;2023-05-07T13:19:30;2.47;;;2.22;;
11524;SDS011;5819;49.648;8.330;2023-05-07T13:21:58;2.42;;;2.22;;
11524;SDS011;5819;49.648;8.330;2023-05-07T13:24:26;2.60;;;2.40;;
11524;SDS011;5819;49.648;8.330;2023-05-07T13:26:54;2.72;;;2.40;;
11524;SDS011;5819;49.648;8.330;2023-05-07T13:29:22;3.88;;;2.20;;
11524;SDS011;5819;49.648;8.330;2023-05-07T13:31:56;2.67;;;2.45;;
11524;SDS011;5819;49.648;8.330;2023-05-07T13:34:24;3.17;;;2.13;;
11524;SDS011;5819;49.648;8.330;2023-05-07T13:36:52;2.70;;;2.50;;
11524;SDS011;5819;49.648;8.330;2023-05-07T13:39:21;2.40;;;2.20;;
11524;SDS011;5819;49.648;8.330;2023-05-07T13:41:49;2.83;;;2.63;;
11524;SDS011;5819;49.648;8.330;2023-05-07T13:44:16;2.45;;;2.25;;
11524;SDS011;5819;49.648;8.330;2023-05-07T13:46:45;2.72;;;2.42;;
11524;SDS011;5819;49.648;8.330;2023-05-07T13:49:14;3.20;;;2.80;;
11524;SDS011;5819;49.648;8.330;2023-05-07T13:51:42;2.95;;;2.45;;
11524;SDS011;5819;49.648;8.330;2023-05-07T13:54:09;2.55;;;2.35;;
11524;SDS011;5819;49.648;8.330;2023-05-07T13:56:38;3.15;;;2.70;;
11524;SDS011;5819;49.648;8.330;2023-05-07T13:59:06;3.58;;;2.60;;
11524;SDS011;5819;49.648;8.330;2023-05-07T14:01:34;3.03;;;2.70;;
11524;SDS011;5819;49.648;8.330;2023-05-07T14:04:02;2.90;;;2.70;;
11524;SDS011;5819;49.648;8.330;2023-05-07T14:06:31;3.17;;;2.88;;
11524;SDS011;5819;49.648;8.330;2023-05-07T14:08:59;4.28;;;2.65;;
11524;SDS011;5819;49.648;8.330;2023-05-07T14:11:27;2.95;;;2.75;;
11524;SDS011;5819;49.648;8.330;2023-05-07T14:13:55;3.70;;;2.88;;
11524;SDS011;5819;49.648;8.330;2023-05-07T14:16:24;3.70;;;3.17;;
11524;SDS011;5819;49.648;8.330;2023-05-07T14:18:52;4.18;;;3.00;;
11524;SDS011;5819;49.648;8.330;2023-05-07T14:21:23;2.90;;;2.70;;
11524;SDS011;5819;49.648;8.330;2023-05-07T14:23:52;3.00;;;2.80;;
11524;SDS011;5819;49.648;8.330;2023-05-07T14:26:22;4.97;;;3.08;;
11524;SDS011;5819;49.648;8.330;2023-05-07T14:28:50;3.38;;;3.08;;
11524;SDS011;5819;49.648;8.330;2023-05-07T14:31:18;3.35;;;3.05;;
11524;SDS011;5819;49.648;8.330;2023-05-07T14:33:46;4.10;;;3.70;;
11524;SDS011;5819;49.648;8.330;2023-05-07T14:36:16;6.22;;;3.10;;
11524;SDS011;5819;49.648;8.330;2023-05-07T14:38:43;5.38;;;3.72;;
11524;SDS011;5819;49.648;8.330;2023-05-07T14:41:12;4.78;;;3.53;;
11524;SDS011;5819;49.648;8.330;2023-05-07T14:43:42;4.03;;;3.70;;
11524;SDS011;5819;49.648;8.330;2023-05-07T14:46:16;3.90;;;3.55;;
11524;SDS011;5819;49.648;8.330;2023-05-07T14:48:44;5.18;;;2.97;;
11524;SDS011;5819;49.648;8.330;2023-05-07T14:51:13;5.25;;;2.85;;
11524;SDS011;5819;49.648;8.330;2023-05-07T14:53:41;5.22;;;3.50;;
11524;SDS011;5819;49.648;8.330;2023-05-07T14:56:09;4.75;;;3.50;;
11524;SDS011;5819;49.648;8.330;2023-05-07T14:58:39;4.53;;;3.40;;
11524;SDS011;5819;49.648;8.330;2023-05-07T15:01:07;3.53;;;3.22;;
11524;SDS011;5819;49.648;8.330;2023-05-07T15:03:35;7.28;;;3.90;;
11524;SDS011;5819;49.648;8.330;2023-05-07T15:06:04;5.95;;;4.13;;
11524;SDS011;5819;49.648;8.330;2023-05-07T15:08:31;4.00;;;3.65;;
11524;SDS011;5819;49.648;8.330;2023-05-07T15:10:59;2.65;;;2.45;;
11524;SDS011;5819;49.648;8.330;2023-05-07T15:13:27;2.63;;;2.42;;
11524;SDS011;5819;49.648;8.330;2023-05-07T15:15:57;7.68;;;3.17;;
11524;SDS011;5819;49.648;8.330;2023-05-07T15:18:25;4.95;;;3.00;;
11524;SDS011;5819;49.648;8.330;2023-05-07T15:20:56;6.30;;;3.20;;
11524;SDS011;5819;49.648;8.330;2023-05-07T15:23:24;4.88;;;3.38;;
11524;SDS011;5819;49.648;8.330;2023-05-07T15:25:52;4.65;;;3.97;;
11524;SDS011;5819;49.648;8.330;2023-05-07T15:28:20;6.18;;;4.35;;
11524;SDS011;5819;49.648;8.330;2023-05-07T15:30:49;6.45;;;4.57;;